Terminal Aerodrome Forecast
Issued by NWS Jackson, KY

Home | Current Version | Previous Version | Text Only | Print | Product List | Glossary On
Versions: 1 2 3 4 5 6 7 8 9 10 11 12 13 14 15 16 17 18 19 20 21
000
FTUS43 KJKL 201200 AAA
TAFJKL
TAF AMD
KJKL 201252Z 2013/2112 VRB03KT 4SM -DZ OVC025
      TEMPO 2013/2016 1SM -SHRA BR BKN002 OVC020
     FM201900 VRB03KT P6SM SCT015
     FM210600 00000KT 3SM BR SCT040
     FM210900 00000KT 1SM BR SCT003 SCT040=

USA.gov is the U.S. government's official web portal to all federal, state and local government web resources and services.